Flight Track Log - Related Links

Times and Time Zones

All times are in EDT time to prevent confusion due to time zone crossing. See the DAL268 flight status page for this flight to view local times or setup timezone preferences in your user account.

Time Position Orientation Groundspeed Altitude Reporting Facility
EDT Latitude Longitude Course Direction KTS MPH feet Rate Location/Type
Mon 02:38:57 PM 37.6203 -122.3790 302° West 175 201  Level FlightAware ADS-B
Mon 02:39:05 PM 37.6235 -122.3860 300° West 189 217 300 3,789 Climbing FlightAware ADS-B
Mon 02:39:16 PM 37.6283 -122.3970 299° West 181 208 1,200 4,800 Climbing FlightAware ADS-B
Mon 02:39:20 PM 37.6301 -122.4010 300° West 179 206 1,500 3,750 Climbing FlightAware ADS-B
Mon 02:39:24 PM 37.6320 -122.4030 320° Northwest 180 207 1,700 3,000 Climbing FlightAware ADS-B
Mon 02:39:28 PM 37.6349 -122.4070 312° West 182 209 1,900 3,000 Climbing FlightAware ADS-B
Mon 02:39:32 PM 37.6379 -122.4090 332° Northwest 182 209 2,100 3,000 Climbing FlightAware ADS-B
Mon 02:39:36 PM 37.6411 -122.4100 346° North 183 211 2,300 2,250 Climbing FlightAware ADS-B
Mon 02:39:40 PM 37.6441 -122.4110 345° North 185 213 2,400 1,875 Climbing FlightAware ADS-B
Mon 02:39:52 PM 37.6542 -122.4090 North 190 219 2,800 2,118 Climbing FlightAware ADS-B
Mon 02:39:57 PM 37.6583 -122.4050 38° Northeast 193 222 3,000 1,846 Climbing FlightAware ADS-B
Mon 02:40:05 PM 37.6629 -122.3990 46° Northeast 197 227 3,200 1,667 Climbing FlightAware ADS-B
Mon 02:40:15 PM 37.6683 -122.3890 56° Northeast 202 232 3,500 1,615 Climbing FlightAware ADS-B
Mon 02:40:31 PM 37.6775 -122.3720 56° Northeast 231 266 3,900 1,548 Climbing FlightAware ADS-B
Mon 02:40:46 PM 37.6870 -122.3540 56° Northeast 251 289 4,300 1,355 Climbing FlightAware ADS-B
Mon 02:41:02 PM 37.6984 -122.3330 56° Northeast 275 316 4,600 1,935 Climbing FlightAware ADS-B
Mon 02:41:17 PM 37.7099 -122.3130 54° Northeast 285 328 5,300 2,727 Climbing FlightAware ADS-B
Mon 02:41:35 PM 37.7230 -122.2880 56° Northeast 287 330 6,100 2,714 Climbing FlightAware ADS-B
Mon 02:41:59 PM 37.7388 -122.2540 60° Northeast 287 330 7,200 2,824 Climbing FlightAware ADS-B
Mon 02:42:09 PM 37.7441 -122.2370 68° East 293 337 7,700 2,870 Climbing FlightAware ADS-B
Mon 02:42:22 PM 37.7493 -122.2170 72° East 295 339 8,300 2,880 Climbing FlightAware ADS-B
Mon 02:42:34 PM 37.7547 -122.1970 71° East 296 341 8,900 3,176 Climbing FlightAware ADS-B
Mon 02:42:39 PM 37.7573 -122.1880 70° East 297 342 9,200 2,700 Climbing FlightAware ADS-B
Mon 02:42:54 PM 37.7645 -122.1630 70° East 301 346 9,800 2,267 Climbing FlightAware ADS-B
Mon 02:43:24 PM 37.7788 -122.1120 70° East 319 367 10,900 1,574 Climbing FlightAware ADS-B
Mon 02:43:55 PM 37.7947 -122.0560 70° East 356 410 11,400 1,082 Climbing FlightAware ADS-B
Mon 02:44:25 PM 37.8120 -121.9930 71° East 386 444 12,000 1,180 Climbing FlightAware ADS-B
Mon 02:44:56 PM 37.8302 -121.9250 71° East 410 472 12,600 1,258 Climbing FlightAware ADS-B
Mon 02:45:27 PM 37.8497 -121.8530 71° East 433 498 13,300 2,164 Climbing FlightAware ADS-B
Mon 02:45:57 PM 37.8692 -121.7800 71° East 427 491 14,800 3,400 Climbing FlightAware ADS-B
Mon 02:46:27 PM 37.8878 -121.7110 71° East 412 474 16,700 2,459 Climbing FlightAware ADS-B
Mon 02:46:58 PM 37.9073 -121.6380 71° East 431 496 17,300 1,219 Climbing FlightAware ADS-B
Mon 02:47:31 PM 37.9284 -121.5580 71° East 449 517 18,000 1,619 Climbing FlightAware ADS-B
Mon 02:48:01 PM 37.9439 -121.4810 76° East 453 521 19,000 1,900 Climbing FlightAware ADS-B
Mon 02:48:31 PM 37.9584 -121.4030 77° East 458 527 19,900 1,765 Climbing FlightAware ADS-B
Mon 02:49:09 PM 37.9770 -121.3050 76° East 464 534 21,000 1,680 Climbing FlightAware ADS-B
Mon 02:49:46 PM 37.9969 -121.2050 76° East 460 529 22,000 1,629 Climbing FlightAware ADS-B
Mon 02:50:19 PM 38.0150 -121.1170 75° East 478 550 22,900 1,565 Climbing FlightAware ADS-B
Mon 02:50:55 PM 38.0340 -121.0200 76° East 484 557 23,800 1,562 Climbing FlightAware ADS-B
Mon 02:51:32 PM 38.0540 -120.9170 76° East 490 564 24,800 1,629 Climbing FlightAware ADS-B
Mon 02:52:05 PM 38.0710 -120.8230 77° East 494 568 25,700 1,457 Climbing FlightAware ADS-B
Mon 02:52:42 PM 38.0900 -120.7200 77° East 498 573 26,500 1,500 Climbing FlightAware ADS-B
Mon 02:53:17 PM 38.1090 -120.6180 77° East 500 575 27,500 1,612 Climbing FlightAware ADS-B
Mon 02:53:49 PM 38.1250 -120.5300 77° East 499 574 28,300 1,500 Climbing FlightAware ADS-B
Mon 02:54:21 PM 38.1420 -120.4390 77° East 503 579 29,100 1,541 Climbing FlightAware ADS-B
Mon 02:55:03 PM 38.1640 -120.3190 77° East 500 575 30,200 1,622 Climbing FlightAware ADS-B
Mon 02:55:35 PM 38.1810 -120.2240 77° East 497 572 31,100 1,500 Climbing FlightAware ADS-B
Mon 02:56:11 PM 38.2000 -120.1220 77° East 497 572 31,900 1,286 Climbing FlightAware ADS-B
Mon 02:56:45 PM 38.2160 -120.0280 78° East 498 573 32,600 1,333 Climbing FlightAware ADS-B
Mon 02:57:23 PM 38.2360 -119.9200 77° East 497 572 33,500 1,371 Climbing FlightAware ADS-B
Mon 02:57:55 PM 38.2530 -119.8250 77° East 496 571 34,200 1,182 Climbing FlightAware ADS-B
Mon 02:58:29 PM 38.2690 -119.7320 78° East 495 570 34,800 1,147 Climbing FlightAware ADS-B
Mon 02:59:03 PM 38.2850 -119.6390 78° East 494 568 35,500 1,114 Climbing FlightAware ADS-B
Mon 02:59:39 PM 38.3020 -119.5430 77° East 494 568 36,100 1,183 Climbing FlightAware ADS-B
Mon 03:00:14 PM 38.3200 -119.4420 77° East 489 563 36,900 771 Climbing FlightAware ADS-B
Mon 03:00:49 PM 38.3370 -119.3400 78° East 485 558 37,000 87 Climbing FlightAware ADS-B
Mon 03:01:23 PM 38.3530 -119.2490 77° East 486 559 37,000  Level FlightAware ADS-B
Mon 03:01:57 PM 38.3700 -119.1500 78° East 486 559 37,000  Level FlightAware ADS-B
Mon 03:02:19 PM 38.3800 -119.0900 78° East 486 559 37,000  Level FlightAware ADS-B
Mon 03:03:04 PM 38.4020 -118.9600 78° East 488 562 37,000  Level FlightAware ADS-B
Mon 03:03:42 PM 38.4200 -118.8530 78° East 489 563 37,000  Level FlightAware ADS-B
Mon 03:04:40 PM 38.4470 -118.6940 78° East 485 558 37,000  Level FlightAware ADS-B
Mon 03:05:13 PM 38.4620 -118.6040 78° East 486 559 37,000  Level FlightAware ADS-B
Mon 03:05:49 PM 38.4790 -118.5010 78° East 488 562 37,000  Level FlightAware ADS-B
Mon 03:06:24 PM 38.4950 -118.4040 78° East 489 563 37,000  Level FlightAware ADS-B
Mon 03:06:57 PM 38.5100 -118.3090 79° East 489 563 37,000  Level FlightAware ADS-B
Mon 03:07:29 PM 38.5250 -118.2200 78° East 490 564 37,000  Level FlightAware ADS-B
Mon 03:08:10 PM 38.5440 -118.1040 78° East 493 567 37,000  Level FlightAware ADS-B
Mon 03:08:41 PM 38.5580 -118.0140 79° East 495 570 37,000  Level FlightAware ADS-B
Mon 03:09:20 PM 38.5740 -117.9170 78° East 495 570 37,000  Level FlightAware ADS-B
Mon 03:09:58 PM 38.5890 -117.8240 78° East 495 570 37,000  Level FlightAware ADS-B
Mon 03:10:35 PM 38.6040 -117.7340 78° East 495 570 37,000  Level FlightAware ADS-B
Mon 03:11:10 PM 38.6190 -117.6490 77° East 495 570 37,000  Level FlightAware ADS-B
Mon 03:11:47 PM 38.6340 -117.5580 78° East 495 570 37,000  Level FlightAware ADS-B
Mon 03:12:35 PM 38.6530 -117.4410 78° East 495 570 37,000  Level FlightAware ADS-B
Mon 03:13:14 PM 38.6690 -117.3460 78° East 495 570 37,000  Level FlightAware ADS-B
Mon 03:13:50 PM 38.6830 -117.2580 78° East 495 570 37,000  Level FlightAware ADS-B
Mon 03:14:26 PM 38.6980 -117.1710 78° East 495 570 37,000  Level FlightAware ADS-B
Mon 03:15:02 PM 38.7120 -117.0830 78° East 495 570 37,000  Level FlightAware ADS-B
Mon 03:15:38 PM 38.7270 -116.9950 78° East 495 570 37,000  Level FlightAware ADS-B
Mon 03:16:14 PM 38.7420 -116.9070 78° East 495 570 37,000  Level FlightAware ADS-B
Mon 03:16:50 PM 38.7560 -116.8190 78° East 495 570 37,000  Level FlightAware ADS-B
Mon 03:17:26 PM 38.7710 -116.7310 78° East 495 570 37,000  Level FlightAware ADS-B
Mon 03:18:03 PM 38.7860 -116.6410 78° East 495 570 37,000  Level FlightAware ADS-B
Mon 03:18:39 PM 38.8000 -116.5530 78° East 495 570 37,000  Level FlightAware ADS-B
Mon 03:19:17 PM 38.8300 -116.2153 78° East 501 577 37,000  Level Salt Lake Center
Mon 03:20:19 PM 38.8561 -116.0394 79° East 501 577 37,000  Level Salt Lake Center
Mon 03:21:21 PM 38.8808 -115.8653 80° East 497 572 37,000  Level Salt Lake Center
Mon 03:22:23 PM 38.9092 -115.6539 80° East 501 577 37,000  Level Salt Lake Center
Mon 03:23:25 PM 38.9344 -115.4781 79° East 500 575 37,000  Level Salt Lake Center
Mon 03:24:27 PM 38.9578 -115.3083 80° East 503 579 37,000  Level Salt Lake Center
Mon 03:25:30 PM 38.9819 -115.1328 80° East 500 575 37,000  Level Salt Lake Center
Mon 03:26:32 PM 39.0053 -114.9567 80° East 500 575 37,000  Level Salt Lake Center
Mon 03:27:34 PM 39.0333 -114.7439 80° East 502 578 37,000  Level Salt Lake Center
Mon 03:33:36 PM 39.1670 -113.6770 80° East 508 585 37,000  Level FlightAware ADS-B
Mon 03:34:16 PM 39.1800 -113.5690 81° East 509 586 37,000  Level FlightAware ADS-B
Mon 03:34:47 PM 39.1920 -113.4710 81° East 512 589 37,000  Level FlightAware ADS-B
Mon 03:35:25 PM 39.2040 -113.3740 81° East 512 589 37,000  Level FlightAware ADS-B
Mon 03:36:01 PM 39.2150 -113.2810 81° East 512 589 37,000  Level FlightAware ADS-B
Mon 03:36:37 PM 39.2260 -113.1890 81° East 512 589 37,000  Level FlightAware ADS-B
Mon 03:37:10 PM 39.2434 -113.0280 82° East 518 596 37,000  Level FlightAware ADS-B
Mon 03:37:41 PM 39.2543 -112.9330 82° East 521 600 37,000  Level FlightAware ADS-B
Mon 03:38:11 PM 39.2649 -112.8390 82° East 522 601 37,000  Level FlightAware ADS-B
Mon 03:38:46 PM 39.2771 -112.7310 82° East 521 600 37,000  Level FlightAware ADS-B
Mon 03:39:19 PM 39.2884 -112.6300 82° East 521 600 37,000  Level FlightAware ADS-B
Mon 03:39:42 PM 39.2967 -112.5620 81° East 523 602 37,000  Level FlightAware ADS-B
Mon 03:40:03 PM 39.3106 -112.4980 74° East 527 606 37,000  Level FlightAware ADS-B
Mon 03:40:23 PM 39.3295 -112.4410 67° East 529 609 37,000  Level FlightAware ADS-B
Mon 03:40:53 PM 39.3615 -112.3560 64° Northeast 528 608 37,000  Level FlightAware ADS-B
Mon 03:41:23 PM 39.3917 -112.2670 66° East 529 609 37,000  Level FlightAware ADS-B
Mon 03:41:56 PM 39.4242 -112.1730 66° East 529 609 37,000  Level FlightAware ADS-B
Mon 03:42:34 PM 39.4630 -112.0650 65° Northeast 532 612 37,000  Level FlightAware ADS-B
Mon 03:43:08 PM 39.4993 -111.9650 65° Northeast 531 611 37,000  Level FlightAware ADS-B
Mon 03:43:41 PM 39.5336 -111.8720 64° Northeast 531 611 37,000  Level FlightAware ADS-B
Mon 03:44:11 PM 39.5655 -111.7840 65° Northeast 531 611 37,000  Level FlightAware ADS-B
Mon 03:44:50 PM 39.6061 -111.6730 65° Northeast 531 611 37,000  Level FlightAware ADS-B
Mon 03:45:21 PM 39.6382 -111.5850 65° Northeast 533 613 37,000  Level FlightAware ADS-B
Mon 03:45:52 PM 39.6704 -111.4950 65° Northeast 535 616 37,000  Level FlightAware ADS-B
Mon 03:46:22 PM 39.7023 -111.4060 65° Northeast 536 617 37,000  Level FlightAware ADS-B
Mon 03:46:53 PM 39.7337 -111.3180 65° Northeast 536 617 37,000  Level FlightAware ADS-B
Mon 03:47:24 PM 39.7665 -111.2260 65° Northeast 535 616 37,000  Level FlightAware ADS-B
Mon 03:47:54 PM 39.7977 -111.1380 65° Northeast 532 612 37,000  Level FlightAware ADS-B
Mon 03:48:25 PM 39.8286 -111.0500 65° Northeast 533 613 37,000  Level FlightAware ADS-B
Mon 03:49:03 PM 39.8670 -110.9420 65° Northeast 533 613 37,000  Level FlightAware ADS-B
Mon 03:49:14 PM 39.8792 -110.9060 66° East 534 615 37,000  Level FlightAware ADS-B
Mon 03:49:47 PM 39.9134 -110.8090 65° Northeast 534 615 37,000  Level FlightAware ADS-B
Mon 03:50:19 PM 39.9454 -110.7170 66° East 535 616 37,000  Level FlightAware ADS-B
Mon 03:50:53 PM 39.9800 -110.6190 65° Northeast 537 618 37,000  Level FlightAware ADS-B
Mon 03:51:33 PM 40.0190 -110.5040 66° East 537 618 37,000  Level FlightAware ADS-B
Mon 03:52:06 PM 40.0540 -110.4050 65° Northeast 536 617 37,000  Level FlightAware ADS-B
Mon 03:52:41 PM 40.0890 -110.3020 66° East 536 617 37,000  Level FlightAware ADS-B
Mon 03:53:10 PM 40.1190 -110.2140 66° East 538 619 37,000  Level FlightAware ADS-B
Mon 03:53:58 PM 40.1660 -110.0700 67° East 540 621 37,000  Level FlightAware ADS-B
Mon 03:54:34 PM 40.1970 -109.9640 69° East 539 620 37,000  Level FlightAware ADS-B
Mon 03:55:10 PM 40.2300 -109.8520 69° East 538 619 37,000  Level FlightAware ADS-B
Mon 03:55:42 PM 40.2580 -109.7550 69° East 537 618 37,000  Level FlightAware ADS-B
Mon 03:56:19 PM 40.2900 -109.6440 69° East 536 617 37,000  Level FlightAware ADS-B
Mon 03:56:54 PM 40.3210 -109.5360 69° East 537 618 37,000  Level FlightAware ADS-B
Mon 03:57:31 PM 40.3530 -109.4250 69° East 536 617 37,000  Level FlightAware ADS-B
Mon 03:58:02 PM 40.3810 -109.3270 69° East 536 617 37,000  Level FlightAware ADS-B
Mon 03:58:38 PM 40.4110 -109.2200 70° East 537 618 37,000  Level FlightAware ADS-B
Mon 03:59:14 PM 40.4420 -109.1100 70° East 537 618 37,000  Level FlightAware ADS-B
Mon 03:59:44 PM 40.4680 -109.0190 69° East 537 618 37,000  Level FlightAware ADS-B
Mon 04:00:21 PM 40.4990 -108.9080 70° East 536 617 37,000  Level FlightAware ADS-B
Mon 04:00:56 PM 40.5300 -108.7970 70° East 537 618 37,000  Level FlightAware ADS-B
Mon 04:01:28 PM 40.5570 -108.7020 69° East 537 618 37,000  Level FlightAware ADS-B
Mon 04:02:02 PM 40.5860 -108.5940 70° East 536 617 37,000  Level FlightAware ADS-B
Mon 04:02:22 PM 40.6030 -108.5350 69° East 534 615 37,000  Level FlightAware ADS-B
Mon 04:03:08 PM 40.6420 -108.3940 70° East 534 615 37,000  Level FlightAware ADS-B
Mon 04:03:40 PM 40.6690 -108.2970 70° East 535 616 37,000 164 Level FlightAware ADS-B
Mon 04:04:21 PM 40.7020 -108.1740 70° East 535 616 37,200 789 Climbing FlightAware ADS-B
Mon 04:04:56 PM 40.7320 -108.0650 70° East 529 609 38,000 1,268 Climbing FlightAware ADS-B
Mon 04:05:32 PM 40.7610 -107.9560 71° East 525 604 38,700 882 Climbing FlightAware ADS-B
Mon 04:06:04 PM 40.7870 -107.8610 70° East 525 604 39,000 281 Climbing FlightAware ADS-B
Mon 04:06:36 PM 40.8120 -107.7660 71° East 523 602 39,000  Level FlightAware ADS-B
Mon 04:07:10 PM 40.8410 -107.6600 70° East 525 604 39,000  Level FlightAware ADS-B
Mon 04:07:50 PM 40.8730 -107.5390 71° East 525 604 39,000  Level FlightAware ADS-B
Mon 04:08:26 PM 40.9010 -107.4310 71° East 526 605 39,000  Level FlightAware ADS-B
Mon 04:09:06 PM 40.9330 -107.3100 71° East 527 606 39,000  Level FlightAware ADS-B
Mon 04:09:43 PM 40.9610 -107.2030 71° East 524 603 39,000  Level FlightAware ADS-B
Mon 04:10:14 PM 40.9870 -107.1050 71° East 525 604 39,000  Level FlightAware ADS-B
Mon 04:10:52 PM 41.0170 -106.9900 71° East 528 608 39,000  Level FlightAware ADS-B
Mon 04:11:27 PM 41.0440 -106.8850 71° East 529 609 39,000  Level FlightAware ADS-B
Mon 04:12:04 PM 41.0730 -106.7710 71° East 533 613 39,000  Level FlightAware ADS-B
Mon 04:12:34 PM 41.0970 -106.6770 71° East 529 609 39,000  Level FlightAware ADS-B
Mon 04:13:15 PM 41.1300 -106.5490 71° East 528 608 39,000  Level FlightAware ADS-B
Mon 04:13:46 PM 41.1540 -106.4570 71° East 530 610 39,000  Level FlightAware ADS-B
Mon 04:14:19 PM 41.1790 -106.3550 72° East 529 609 39,000  Level FlightAware ADS-B
Mon 04:14:59 PM 41.2110 -106.2290 71° East 529 609 39,000  Level FlightAware ADS-B
Mon 04:15:31 PM 41.2360 -106.1320 71° East 529 609 39,000  Level FlightAware ADS-B
Mon 04:16:05 PM 41.2620 -106.0280 72° East 529 609 39,000  Level FlightAware ADS-B
Mon 04:16:44 PM 41.2910 -105.9110 72° East 529 609 39,000  Level FlightAware ADS-B
Mon 04:17:19 PM 41.3170 -105.8030 72° East 527 606 39,000  Level FlightAware ADS-B
Mon 04:17:51 PM 41.3420 -105.7050 71° East 526 605 39,000  Level FlightAware ADS-B
Mon 04:18:29 PM 41.3720 -105.5870 71° East 527 606 39,000  Level FlightAware ADS-B
Mon 04:19:02 PM 41.3990 -105.4830 71° East 527 606 39,000  Level FlightAware ADS-B
Mon 04:19:36 PM 41.4260 -105.3810 71° East 524 603 39,000  Level FlightAware ADS-B
Mon 04:21:01 PM 41.4928 -105.1190 71° East 524 603 39,000  Level FlightAware ADS-B
Mon 04:21:32 PM 41.5162 -105.0260 71° East 523 602 39,000  Level FlightAware ADS-B
Mon 04:22:03 PM 41.5404 -104.9300 71° East 524 603 39,000  Level FlightAware ADS-B
Mon 04:22:36 PM 41.5654 -104.8310 71° East 525 604 39,000  Level FlightAware ADS-B
Mon 04:23:06 PM 41.5890 -104.7370 71° East 528 608 39,000  Level FlightAware ADS-B
Mon 04:23:37 PM 41.6124 -104.6430 72° East 530 610 39,000  Level FlightAware ADS-B
Mon 04:24:07 PM 41.6358 -104.5490 72° East 527 606 39,000  Level FlightAware ADS-B
Mon 04:24:37 PM 41.6586 -104.4560 72° East 524 603 39,000  Level FlightAware ADS-B
Mon 04:25:08 PM 41.6820 -104.3610 72° East 522 601 39,000  Level FlightAware ADS-B
Mon 04:25:48 PM 41.7122 -104.2380 72° East 523 602 39,000  Level FlightAware ADS-B
Mon 04:26:19 PM 41.7352 -104.1440 72° East 524 603 39,000  Level FlightAware ADS-B
Mon 04:26:52 PM 41.7598 -104.0430 72° East 523 602 39,000  Level FlightAware ADS-B
Mon 04:27:22 PM 41.7821 -103.9510 72° East 522 601 39,000  Level FlightAware ADS-B
Mon 04:27:53 PM 41.8046 -103.8570 72° East 521 600 39,000  Level FlightAware ADS-B
Mon 04:28:23 PM 41.8267 -103.7650 72° East 520 598 39,000  Level FlightAware ADS-B
Mon 04:28:53 PM 41.8490 -103.6720 72° East 522 601 39,000  Level FlightAware ADS-B
Mon 04:29:24 PM 41.8714 -103.5780 72° East 522 601 39,000  Level FlightAware ADS-B
Mon 04:29:44 PM 41.8856 -103.5150 73° East 523 602 39,000  Level FlightAware ADS-B
Mon 04:30:11 PM 41.9009 -103.4310 76° East 524 603 39,000  Level FlightAware ADS-B
Mon 04:30:42 PM 41.9156 -103.3320 79° East 524 603 39,000  Level FlightAware ADS-B
Mon 04:31:12 PM 41.9293 -103.2350 79° East 524 603 39,000  Level FlightAware ADS-B
Mon 04:31:42 PM 41.9427 -103.1380 79° East 524 603 39,000  Level FlightAware ADS-B
Mon 04:32:14 PM 41.9566 -103.0370 79° East 524 603 39,000  Level FlightAware ADS-B
Mon 04:32:45 PM 41.9701 -102.9390 79° East 524 603 39,000  Level FlightAware ADS-B
Mon 04:33:17 PM 41.9841 -102.8370 80° East 523 602 39,000  Level FlightAware ADS-B
Mon 04:33:48 PM 41.9974 -102.7380 80° East 522 601 39,000  Level FlightAware ADS-B
Mon 04:34:19 PM 42.0106 -102.6400 80° East 521 600 39,000  Level FlightAware ADS-B
Mon 04:35:07 PM 42.0310 -102.4880 80° East 522 601 39,000  Level FlightAware ADS-B
Mon 04:35:44 PM 42.0471 -102.3680 80° East 522 601 39,000  Level FlightAware ADS-B
Mon 04:36:15 PM 42.0598 -102.2710 80° East 523 602 39,000  Level FlightAware ADS-B
Mon 04:36:55 PM 42.0768 -102.1410 80° East 523 602 39,000  Level FlightAware ADS-B
Mon 04:37:43 PM 42.0964 -101.9890 80° East 522 601 39,000  Level FlightAware ADS-B
Mon 04:38:41 PM 42.1201 -101.8030 80° East 521 600 39,000  Level FlightAware ADS-B
Mon 04:39:15 PM 42.1338 -101.6940 80° East 521 600 39,000  Level FlightAware ADS-B
Mon 04:39:50 PM 42.1476 -101.5830 80° East 522 601 39,000  Level FlightAware ADS-B
Mon 04:40:22 PM 42.1602 -101.4820 80° East 522 601 39,000  Level FlightAware ADS-B
Mon 04:41:00 PM 42.1722 -101.3933 80° East 522 601 39,000  Level Denver Center
Mon 04:42:02 PM 42.1969 -101.1789 81° East 519 597 39,000  Level Denver Center
Mon 04:43:04 PM 42.2208 -100.9936 80° East 522 601 39,000  Level Denver Center
Mon 04:44:06 PM 42.2444 -100.7819 81° East 512 589 39,000  Level Denver Center
Mon 04:45:08 PM 42.2661 -100.5944 81° East 523 602 39,000  Level Denver Center
Mon 04:46:34 PM 42.2972 -100.3175 81° East 519 597 39,000  Level Minneapolis Center
Mon 04:47:36 PM 42.3153 -100.1636 81° East 518 596 39,000  Level Minneapolis Center
Mon 04:48:15 PM 42.3353 -99.9794 82° East 518 596 39,000  Level Denver Center
Mon 04:49:17 PM 42.3558 -99.7983 81° East 514 592 39,000  Level Denver Center
Mon 04:50:19 PM 42.3781 -99.5839 82° East 518 596 39,000  Level Denver Center
Mon 04:51:21 PM 42.3992 -99.3925 81° East 515 593 39,000  Level Denver Center
Mon 04:52:23 PM 42.4186 -99.2006 82° East 516 594 39,000  Level Denver Center
Mon 04:53:25 PM 42.4375 -99.0094 82° East 511 588 39,000  Level Denver Center
Mon 04:54:27 PM 42.4572 -98.8186 82° East 511 588 39,000  Level Denver Center
Mon 04:55:29 PM 42.4733 -98.6264 83° East 511 588 39,000  Level Denver Center
Mon 05:00:43 PM 42.5210 -97.5910 83° East 509 586 39,000  Level FlightAware ADS-B
Mon 05:01:23 PM 42.5270 -97.4640 86° East 512 589 39,000  Level FlightAware ADS-B
Mon 05:01:58 PM 42.5310 -97.3510 87° East 513 590 39,000  Level FlightAware ADS-B
Mon 05:02:33 PM 42.5360 -97.2400 86° East 512 589 39,000  Level FlightAware ADS-B
Mon 05:03:17 PM 42.5410 -97.0960 87° East 510 587 39,000  Level FlightAware ADS-B
Mon 05:03:50 PM 42.5450 -96.9970 87° East 510 587 39,000  Level FlightAware ADS-B
Mon 05:04:34 PM 42.5500 -96.8550 87° East 511 588 39,000  Level FlightAware ADS-B
Mon 05:05:07 PM 42.5530 -96.7460 88° East 511 588 39,000  Level FlightAware ADS-B
Mon 05:05:43 PM 42.5570 -96.6300 87° East 511 588 39,000  Level FlightAware ADS-B
Mon 05:06:15 PM 42.5610 -96.5310 87° East 509 586 39,000  Level FlightAware ADS-B
Mon 05:06:55 PM 42.5650 -96.4030 88° East 508 585 39,000  Level FlightAware ADS-B
Mon 05:07:28 PM 42.5680 -96.3020 88° East 508 585 39,000  Level FlightAware ADS-B
Mon 05:08:03 PM 42.5710 -96.1860 88° East 509 586 39,000  Level FlightAware ADS-B
Mon 05:08:43 PM 42.5720 -96.0590 89° East 513 590 39,000  Level FlightAware ADS-B
Mon 05:09:15 PM 42.5530 -95.9600 105° East 508 585 39,000  Level FlightAware ADS-B
Mon 05:09:47 PM 42.5140 -95.8780 123° Southeast 495 570 39,000  Level FlightAware ADS-B
Mon 05:10:23 PM 42.4530 -95.8040 138° Southeast 486 559 39,000  Level FlightAware ADS-B
Mon 05:11:00 PM 42.3890 -95.7330 141° Southeast 485 558 39,000  Level FlightAware ADS-B
Mon 05:11:31 PM 42.3340 -95.6720 141° Southeast 484 557 39,000  Level FlightAware ADS-B
Mon 05:12:10 PM 42.2690 -95.5970 139° Southeast 486 559 39,000  Level FlightAware ADS-B
Mon 05:12:43 PM 42.2110 -95.5290 139° Southeast 490 564 39,000  Level FlightAware ADS-B
Mon 05:13:11 PM 42.1750 -95.4620 126° Southeast 499 574 39,000  Level FlightAware ADS-B
Mon 05:13:27 PM 42.1610 -95.4140 111° Southeast 504 580 39,000  Level FlightAware ADS-B
Mon 05:14:15 PM 42.1600 -95.2630 90° East 508 585 39,000  Level FlightAware ADS-B
Mon 05:14:51 PM 42.1710 -95.1490 83° East 511 588 39,000  Level FlightAware ADS-B
Mon 05:15:21 PM 42.1800 -95.0580 82° East 510 587 39,000  Level FlightAware ADS-B
Mon 05:15:55 PM 42.1900 -94.9540 83° East 505 581 39,000  Level FlightAware ADS-B
Mon 05:16:33 PM 42.2010 -94.8340 83° East 503 579 39,000  Level FlightAware ADS-B
Mon 05:17:33 PM 42.2180 -94.6480 83° East 497 572 39,000  Level FlightAware ADS-B
Mon 05:18:04 PM 42.2270 -94.5520 83° East 500 575 39,000  Level FlightAware ADS-B
Mon 05:18:40 PM 42.2370 -94.4400 83° East 502 578 39,000  Level FlightAware ADS-B
Mon 05:19:17 PM 42.2470 -94.3250 83° East 502 578 39,000  Level FlightAware ADS-B
Mon 05:19:53 PM 42.2570 -94.2170 83° East 506 582 39,000  Level FlightAware ADS-B
Mon 05:20:35 PM 42.2640 -94.0860 86° East 506 582 39,000  Level FlightAware ADS-B
Mon 05:21:05 PM 42.2690 -93.9860 86° East 503 579 39,000  Level FlightAware ADS-B
Mon 05:21:45 PM 42.2770 -93.8600 85° East 502 578 39,000  Level FlightAware ADS-B
Mon 05:22:17 PM 42.2820 -93.7610 86° East 502 578 39,000  Level FlightAware ADS-B
Mon 05:22:53 PM 42.2890 -93.6480 85° East 505 581 39,000  Level FlightAware ADS-B
Mon 05:23:29 PM 42.2950 -93.5380 86° East 505 581 39,000  Level FlightAware ADS-B
Mon 05:24:05 PM 42.3010 -93.4250 86° East 504 580 39,000  Level FlightAware ADS-B
Mon 05:24:37 PM 42.3070 -93.3240 85° East 505 581 39,000  Level FlightAware ADS-B
Mon 05:25:12 PM 42.3130 -93.2150 86° East 507 583 39,000  Level FlightAware ADS-B
Mon 05:25:49 PM 42.3190 -93.0980 86° East 506 582 39,000  Level FlightAware ADS-B
Mon 05:26:24 PM 42.3240 -92.9890 86° East 506 582 39,000  Level FlightAware ADS-B
Mon 05:26:56 PM 42.3290 -92.8840 86° East 507 583 39,000  Level FlightAware ADS-B
Mon 05:27:34 PM 42.3350 -92.7660 86° East 509 586 39,000  Level FlightAware ADS-B
Mon 05:28:10 PM 42.3400 -92.6570 86° East 509 586 39,000  Level FlightAware ADS-B
Mon 05:28:42 PM 42.3450 -92.5540 86° East 507 583 39,000  Level FlightAware ADS-B
Mon 05:29:18 PM 42.3500 -92.4430 86° East 507 583 39,000  Level FlightAware ADS-B
Mon 05:29:54 PM 42.3550 -92.3270 87° East 508 585 39,000  Level FlightAware ADS-B
Mon 05:30:30 PM 42.3600 -92.2150 87° East 509 586 39,000  Level FlightAware ADS-B
Mon 05:31:04 PM 42.3650 -92.1070 86° East 510 587 39,000  Level FlightAware ADS-B
Mon 05:31:37 PM 42.3690 -92.0040 87° East 509 586 39,000  Level FlightAware ADS-B
Mon 05:32:12 PM 42.3740 -91.8900 87° East 508 585 39,000  Level FlightAware ADS-B
Mon 05:32:47 PM 42.3780 -91.7880 87° East 508 585 39,000  Level FlightAware ADS-B
Mon 05:33:23 PM 42.3830 -91.6700 87° East 509 586 39,000  Level FlightAware ADS-B
Mon 05:33:58 PM 42.3870 -91.5530 87° East 508 585 39,000  Level FlightAware ADS-B
Mon 05:34:33 PM 42.3920 -91.4400 87° East 508 585 39,000  Level FlightAware ADS-B
Mon 05:35:05 PM 42.3950 -91.3410 88° East 510 587 39,000  Level FlightAware ADS-B
Mon 05:35:43 PM 42.3990 -91.2190 87° East 509 586 39,000  Level FlightAware ADS-B
Mon 05:36:19 PM 42.4040 -91.1010 87° East 508 585 39,000  Level FlightAware ADS-B
Mon 05:36:52 PM 42.4070 -90.9980 88° East 510 587 39,000  Level FlightAware ADS-B
Mon 05:37:29 PM 42.4110 -90.8870 87° East 512 589 39,000  Level FlightAware ADS-B
Mon 05:38:04 PM 42.4140 -90.7700 88° East 514 592 39,000  Level FlightAware ADS-B
Mon 05:38:37 PM 42.4180 -90.6630 87° East 515 593 39,000  Level FlightAware ADS-B
Mon 05:39:11 PM 42.4210 -90.5550 88° East 516 594 39,000  Level FlightAware ADS-B
Mon 05:39:46 PM 42.4240 -90.4410 88° East 516 594 39,000  Level FlightAware ADS-B
Mon 05:40:23 PM 42.4270 -90.3220 88° East 516 594 39,000  Level FlightAware ADS-B
Mon 05:40:59 PM 42.4300 -90.2050 88° East 513 590 39,000  Level FlightAware ADS-B
Mon 05:41:31 PM 42.4330 -90.1030 88° East 511 588 39,000  Level FlightAware ADS-B
Mon 05:42:05 PM 42.4360 -89.9950 88° East 511 588 39,000  Level FlightAware ADS-B
Mon 05:42:44 PM 42.4380 -89.8690 89° East 512 589 39,000  Level FlightAware ADS-B
Mon 05:43:17 PM 42.4410 -89.7660 88° East 512 589 39,000  Level FlightAware ADS-B
Mon 05:43:53 PM 42.4430 -89.6490 89° East 512 589 39,000  Level FlightAware ADS-B
Mon 05:44:27 PM 42.4460 -89.5420 88° East 513 590 39,000  Level FlightAware ADS-B
Mon 05:45:05 PM 42.4480 -89.4200 89° East 515 593 39,000  Level FlightAware ADS-B
Mon 05:45:37 PM 42.4500 -89.3180 88° East 513 590 39,000  Level FlightAware ADS-B
Mon 05:46:13 PM 42.4520 -89.2070 89° East 512 589 39,000  Level FlightAware ADS-B
Mon 05:46:49 PM 42.4540 -89.0860 89° East 512 589 39,000  Level FlightAware ADS-B
Mon 05:47:21 PM 42.4550 -88.9860 89° East 512 589 39,000  Level FlightAware ADS-B
Mon 05:47:57 PM 42.4570 -88.8720 89° East 511 588 39,000  Level FlightAware ADS-B
Mon 05:48:23 PM 42.4580 -88.7860 89° East 511 588 39,000  Level FlightAware ADS-B
Mon 05:48:59 PM 42.4600 -88.6690 89° East 512 589 39,000  Level FlightAware ADS-B
Mon 05:49:31 PM 42.4610 -88.5680 89° East 512 589 39,000  Level FlightAware ADS-B
Mon 05:50:08 PM 42.4620 -88.4520 89° East 512 589 39,000  Level FlightAware ADS-B
Mon 05:50:45 PM 42.4630 -88.3430 89° East 513 590 39,000  Level FlightAware ADS-B
Mon 05:51:20 PM 42.4650 -88.2230 89° East 515 593 39,000  Level FlightAware ADS-B
Mon 05:51:56 PM 42.4650 -88.1090 90° East 516 594 39,000  Level FlightAware ADS-B
Mon 05:52:29 PM 42.4660 -88.0020 89° East 517 595 39,000  Level FlightAware ADS-B
Mon 05:53:03 PM 42.4670 -87.8900 89° East 517 595 39,000  Level FlightAware ADS-B
Mon 05:53:36 PM 42.4670 -87.7840 90° East 517 595 39,000  Level FlightAware ADS-B
Mon 05:54:18 PM 42.4680 -87.6500 89° East 518 596 39,000  Level FlightAware ADS-B
Mon 05:54:48 PM 42.4680 -87.5530 90° East 518 596 39,000  Level FlightAware ADS-B
Mon 05:55:26 PM 42.4690 -87.4270 89° East 519 597 39,000  Level FlightAware ADS-B
Mon 05:56:01 PM 42.4690 -87.3190 90° East 519 597 39,000  Level FlightAware ADS-B
Mon 05:56:38 PM 42.4690 -87.2000 90° East 520 598 39,000  Level FlightAware ADS-B
Mon 05:57:08 PM 42.4690 -87.0980 90° East 520 598 39,000  Level FlightAware ADS-B
Mon 05:57:44 PM 42.4680 -86.9770 91° East 516 594 39,000  Level FlightAware ADS-B
Mon 05:58:22 PM 42.4680 -86.8580 90° East 516 594 39,000  Level FlightAware ADS-B
Mon 05:58:54 PM 42.4680 -86.7590 90° East 517 595 39,000  Level FlightAware ADS-B
Mon 05:59:32 PM 42.4670 -86.6360 91° East 518 596 39,000  Level FlightAware ADS-B
Mon 06:00:06 PM 42.4670 -86.5200 90° East 520 598 39,000  Level FlightAware ADS-B
Mon 06:00:40 PM 42.4660 -86.4150 91° East 521 600 39,000  Level FlightAware ADS-B
Mon 06:01:16 PM 42.4650 -86.3050 91° East 521 600 39,000  Level FlightAware ADS-B
Mon 06:01:49 PM 42.4640 -86.1890 91° East 520 598 39,000  Level FlightAware ADS-B
Mon 06:02:23 PM 42.4630 -86.0820 91° East 518 596 39,000  Level FlightAware ADS-B
Mon 06:03:01 PM 42.4620 -85.9550 91° East 518 596 39,000  Level FlightAware ADS-B
Mon 06:03:37 PM 42.4600 -85.8430 91° East 518 596 39,000  Level FlightAware ADS-B
Mon 06:04:09 PM 42.4590 -85.7400 91° East 520 598 39,000  Level FlightAware ADS-B
Mon 06:04:47 PM 42.4570 -85.6100 91° East 522 601 39,000  Level FlightAware ADS-B
Mon 06:05:19 PM 42.4560 -85.5080 91° East 519 597 39,000  Level FlightAware ADS-B
Mon 06:05:55 PM 42.4540 -85.3960 91° East 516 594 39,000  Level FlightAware ADS-B
Mon 06:06:33 PM 42.4520 -85.2680 91° East 517 595 39,000  Level FlightAware ADS-B
Mon 06:07:03 PM 42.4500 -85.1710 92° East 517 595 39,000  Level FlightAware ADS-B
Mon 06:07:41 PM 42.4480 -85.0540 91° East 516 594 39,000  Level FlightAware ADS-B
Mon 06:08:22 PM 42.4450 -84.9140 92° East 518 596 39,000  Level FlightAware ADS-B
Mon 06:08:58 PM 42.4430 -84.7980 91° East 521 600 39,000  Level FlightAware ADS-B
Mon 06:09:34 PM 42.4400 -84.6820 92° East 522 601 39,000  Level FlightAware ADS-B
Mon 06:10:07 PM 42.4380 -84.5760 91° East 523 602 39,000  Level FlightAware ADS-B
Mon 06:10:39 PM 42.4350 -84.4730 92° East 524 603 39,000  Level FlightAware ADS-B
Mon 06:11:18 PM 42.4290 -84.3470 94° East 528 608 39,000  Level FlightAware ADS-B
Mon 06:11:55 PM 42.4210 -84.2240 95° East 529 609 39,000  Level FlightAware ADS-B
Mon 06:12:27 PM 42.4140 -84.1150 95° East 519 597 39,000  Level FlightAware ADS-B
Mon 06:13:10 PM 42.4050 -83.9770 95° East 511 588 39,000  Level FlightAware ADS-B
Mon 06:13:46 PM 42.3990 -83.8620 94° East 508 585 39,000  Level FlightAware ADS-B
Mon 06:14:22 PM 42.3920 -83.7510 95° East 508 585 39,000  Level FlightAware ADS-B
Mon 06:14:54 PM 42.3850 -83.6480 95° East 505 581 39,000  Level FlightAware ADS-B
Mon 06:15:30 PM 42.3780 -83.5360 95° East 502 578 39,000  Level FlightAware ADS-B
Mon 06:16:06 PM 42.3710 -83.4240 95° East 499 574 39,000  Level FlightAware ADS-B
Mon 06:16:40 PM 42.3640 -83.3180 95° East 496 571 39,000 -353 Level FlightAware ADS-B
Mon 06:17:14 PM 42.3570 -83.2140 95° East 495 570 38,600 -857 Descending FlightAware ADS-B
Mon 06:17:50 PM 42.3490 -83.1040 96° East 497 572 38,000 -500 Descending FlightAware ADS-B
Mon 06:18:26 PM 42.3420 -82.9920 95° East 506 582 38,000  Level FlightAware ADS-B
Mon 06:19:02 PM 42.3340 -82.8790 95° East 499 574 38,000  Level FlightAware ADS-B
Mon 06:19:34 PM 42.3260 -82.7810 96° East 495 570 38,000  Level FlightAware ADS-B
Mon 06:20:10 PM 42.3190 -82.6710 95° East 494 568 38,000 500 Level FlightAware ADS-B
Mon 06:20:46 PM 42.3110 -82.5590 95° East 494 568 38,600 857 Climbing FlightAware ADS-B
Mon 06:21:20 PM 42.3030 -82.4560 96° East 496 571 39,000 343 Climbing FlightAware ADS-B
Mon 06:21:56 PM 42.2940 -82.3440 96° East 494 568 39,000  Level FlightAware ADS-B
Mon 06:22:26 PM 42.2880 -82.2580 95° East 491 565 39,000  Level FlightAware ADS-B
Mon 06:22:59 PM 42.2820 -82.1800 96° East 491 565 39,000  Level FlightAware ADS-B
Mon 06:23:40 PM 42.2710 -82.0430 96° East 494 568 39,000  Level FlightAware ADS-B
Mon 06:24:11 PM 42.2640 -81.9550 96° East 496 571 39,000  Level FlightAware ADS-B
Mon 06:24:49 PM 42.2550 -81.8380 96° East 496 571 39,000  Level FlightAware ADS-B
Mon 06:25:27 PM 42.2460 -81.7210 96° East 496 571 39,000  Level FlightAware ADS-B
Mon 06:26:05 PM 42.2360 -81.6040 97° East 495 570 39,000  Level FlightAware ADS-B
Mon 06:26:38 PM 42.2280 -81.5030 96° East 497 572 39,000  Level FlightAware ADS-B
Mon 06:27:18 PM 42.2180 -81.3840 96° East 496 571 39,000  Level FlightAware ADS-B
Mon 06:28:00 PM 42.2070 -81.2610 97° East 492 566 39,000  Level FlightAware ADS-B
Mon 06:28:34 PM 42.1980 -81.1510 96° East 490 564 39,000  Level FlightAware ADS-B
Mon 06:29:07 PM 42.1890 -81.0460 97° East 491 565 39,000  Level FlightAware ADS-B
Mon 06:29:40 PM 42.1800 -80.9470 97° East 492 566 39,000  Level FlightAware ADS-B
Mon 06:30:15 PM 42.1710 -80.8420 97° East 493 567 39,000  Level FlightAware ADS-B
Mon 06:30:58 PM 42.1600 -80.7140 97° East 494 568 39,000  Level FlightAware ADS-B
Mon 06:31:38 PM 42.1480 -80.5840 97° East 494 568 39,000  Level FlightAware ADS-B
Mon 06:32:08 PM 42.1400 -80.4950 97° East 494 568 39,000  Level FlightAware ADS-B
Mon 06:32:43 PM 42.1300 -80.3900 97° East 493 567 39,000  Level FlightAware ADS-B
Mon 06:33:18 PM 42.1200 -80.2850 97° East 493 567 39,000  Level FlightAware ADS-B
Mon 06:33:56 PM 42.1100 -80.1740 97° East 493 567 39,000  Level FlightAware ADS-B
Mon 06:34:30 PM 42.0990 -80.0670 98° East 493 567 39,000  Level FlightAware ADS-B
Mon 06:35:08 PM 42.0890 -79.9550 97° East 494 568 39,000  Level FlightAware ADS-B
Mon 06:35:49 PM 42.0740 -79.8010 97° East 496 571 39,000  Level FlightAware ADS-B
Mon 06:36:22 PM 42.0640 -79.7030 98° East 497 572 39,000  Level FlightAware ADS-B
Mon 06:36:50 PM 42.0550 -79.6170 98° East 497 572 39,000  Level FlightAware ADS-B
Mon 06:37:27 PM 42.0440 -79.5020 97° East 496 571 39,000  Level FlightAware ADS-B
Mon 06:38:02 PM 42.0330 -79.3980 98° East 495 570 39,000  Level FlightAware ADS-B
Mon 06:38:37 PM 42.0220 -79.2910 98° East 495 570 39,000  Level FlightAware ADS-B
Mon 06:39:13 PM 42.0110 -79.1810 98° East 495 570 39,000  Level FlightAware ADS-B
Mon 06:39:45 PM 42.0010 -79.0880 98° East 495 570 39,000  Level FlightAware ADS-B
Mon 06:40:21 PM 41.9890 -78.9730 98° East 494 568 39,000  Level FlightAware ADS-B
Mon 06:40:58 PM 41.9780 -78.8670 98° East 494 568 39,000  Level FlightAware ADS-B
Mon 06:41:33 PM 41.9670 -78.7630 98° East 492 566 39,000  Level FlightAware ADS-B
Mon 06:42:05 PM 41.9560 -78.6590 98° East 489 563 39,000  Level FlightAware ADS-B
Mon 06:42:43 PM 41.9430 -78.5460 99° East 491 565 39,000  Level FlightAware ADS-B
Mon 06:43:15 PM 41.9320 -78.4480 99° East 493 567 39,000  Level FlightAware ADS-B
Mon 06:43:51 PM 41.9210 -78.3420 98° East 493 567 39,000  Level FlightAware ADS-B
Mon 06:44:28 PM 41.9080 -78.2300 99° East 492 566 39,000  Level FlightAware ADS-B
Mon 06:45:04 PM 41.8960 -78.1210 98° East 493 567 39,000  Level FlightAware ADS-B
Mon 06:45:34 PM 41.8850 -78.0280 99° East 490 564 39,000  Level FlightAware ADS-B
Mon 06:46:12 PM 41.8720 -77.9160 99° East 489 563 39,000  Level FlightAware ADS-B
Mon 06:46:48 PM 41.8540 -77.8110 103° East 492 566 39,000  Level FlightAware ADS-B
Mon 06:47:24 PM 41.8270 -77.7070 109° East 493 567 39,000  Level FlightAware ADS-B
Mon 06:47:56 PM 41.8020 -77.6130 110° East 494 568 39,000  Level FlightAware ADS-B
Mon 06:48:32 PM 41.7750 -77.5110 110° East 495 570 39,000  Level FlightAware ADS-B
Mon 06:49:08 PM 41.7470 -77.4080 110° East 490 564 39,000  Level FlightAware ADS-B
Mon 06:49:42 PM 41.7220 -77.3140 110° East 489 563 39,000  Level FlightAware ADS-B
Mon 06:50:16 PM 41.6950 -77.2140 110° East 489 563 39,000  Level FlightAware ADS-B
Mon 06:50:52 PM 41.6680 -77.1110 109° East 486 559 39,000  Level FlightAware ADS-B
Mon 06:51:03 PM 41.6595 -77.0801 110° East 486 559 39,000  Level FlightAware ADS-B
Mon 06:51:37 PM 41.6331 -76.9827 110° East 486 559 39,000  Level FlightAware ADS-B
Mon 06:52:17 PM 41.6025 -76.8702 110° East 489 563 39,000  Level FlightAware ADS-B
Mon 06:52:47 PM 41.5791 -76.7846 110° East 488 562 39,000 -94 Level FlightAware ADS-B
Mon 06:53:21 PM 41.5534 -76.6910 110° East 488 562 38,900 -1,043 Descending FlightAware ADS-B
Mon 06:53:56 PM 41.5263 -76.5927 110° East 490 564 37,800 -1,909 Descending FlightAware ADS-B
Mon 06:54:27 PM 41.5022 -76.5052 110° East 486 559 36,800 -1,714 Descending FlightAware ADS-B
Mon 06:54:59 PM 41.4775 -76.4160 110° East 482 555 36,000 -1,355 Descending FlightAware ADS-B
Mon 06:55:29 PM 41.4535 -76.3299 110° East 486 559 35,400 -1,343 Descending FlightAware ADS-B
Mon 06:56:06 PM 41.4250 -76.2278 110° East 492 566 34,500 -1,881 Descending FlightAware ADS-B
Mon 06:56:36 PM 41.4006 -76.1404 110° East 495 570 33,300 -2,286 Descending FlightAware ADS-B
Mon 06:57:09 PM 41.3744 -76.0472 111° Southeast 498 573 32,100 -2,344 Descending FlightAware ADS-B
Mon 06:57:40 PM 41.3492 -75.9579 111° Southeast 502 578 30,800 -2,459 Descending FlightAware ADS-B
Mon 06:58:10 PM 41.3242 -75.8697 111° Southeast 504 580 29,600 -1,967 Descending FlightAware ADS-B
Mon 06:58:41 PM 41.2990 -75.7811 111° Southeast 498 573 28,800 -1,672 Descending FlightAware ADS-B
Mon 06:59:11 PM 41.2739 -75.6952 111° Southeast 491 565 27,900 -2,129 Descending FlightAware ADS-B
Mon 06:59:43 PM 41.2458 -75.6078 113° Southeast 485 558 26,600 -2,438 Descending FlightAware ADS-B
Mon 07:00:15 PM 41.2169 -75.5211 114° Southeast 476 548 25,300 -2,286 Descending FlightAware ADS-B
Mon 07:00:46 PM 41.1903 -75.4415 114° Southeast 468 539 24,200 -2,031 Descending FlightAware ADS-B
Mon 07:01:20 PM 41.1604 -75.3531 114° Southeast 459 528 23,100 -1,091 Descending FlightAware ADS-B
Mon 07:01:52 PM 41.1329 -75.2717 114° Southeast 460 529 23,000 -97 Descending FlightAware ADS-B
Mon 07:02:22 PM 41.1060 -75.1923 114° Southeast 462 532 23,000  Level FlightAware ADS-B
Mon 07:02:53 PM 41.0792 -75.1133 114° Southeast 464 534 23,000  Level FlightAware ADS-B
Mon 07:03:25 PM 41.0509 -75.0299 114° Southeast 464 534 23,000  Level FlightAware ADS-B
Mon 07:03:58 PM 41.0216 -74.9440 114° Southeast 463 533 23,000  Level FlightAware ADS-B
Mon 07:04:18 PM 41.0055 -74.8922 112° Southeast 464 534 23,000 -462 Level FlightAware ADS-B
Mon 07:04:50 PM 40.9865 -74.8051 106° East 461 531 22,600 -1,406 Descending FlightAware ADS-B
Mon 07:05:22 PM 40.9695 -74.7192 105° East 455 524 21,500 -2,419 Descending FlightAware ADS-B
Mon 07:05:52 PM 40.9530 -74.6384 105° East 453 521 20,100 -2,361 Descending FlightAware ADS-B
Mon 07:06:23 PM 40.9354 -74.5561 106° East 458 527 19,100 -1,031 Descending FlightAware ADS-B
Mon 07:06:56 PM 40.9160 -74.4671 106° East 458 527 19,000 -95 Descending FlightAware ADS-B
Mon 07:07:26 PM 40.8984 -74.3872 106° East 456 525 19,000  Level FlightAware ADS-B
Mon 07:07:56 PM 40.8807 -74.3068 106° East 451 519 19,000  Level FlightAware ADS-B
Mon 07:08:26 PM 40.8637 -74.2307 106° East 418 481 19,000  Level FlightAware ADS-B
Mon 07:08:35 PM 40.8578 -74.2093 110° East 406 467 19,000 -293 Level FlightAware ADS-B
Mon 07:09:07 PM 40.8354 -74.1398 113° Southeast 374 430 18,800 -792 Descending FlightAware ADS-B
Mon 07:09:28 PM 40.8213 -74.0980 114° Southeast 362 417 18,300 -1,500 Descending FlightAware ADS-B
Mon 07:09:31 PM 40.8185 -74.0915 120° Southeast 358 412 18,200 -1,800 Descending FlightAware ADS-B
Mon 07:09:38 PM 40.8123 -74.0799 125° Southeast 351 404 18,000 -1,800 Descending FlightAware ADS-B
Mon 07:09:41 PM 40.8082 -74.0736 131° Southeast 348 400 17,900 -1,714 Descending FlightAware ADS-B
Mon 07:09:45 PM 40.8045 -74.0687 135° Southeast 344 396 17,800 -2,400 Descending FlightAware ADS-B
Mon 07:09:46 PM 40.8028 -74.0666 137° Southeast 342 394 17,700 -2,769 Descending FlightAware ADS-B
Mon 07:09:58 PM 40.7873 -74.0524 145° Southeast 330 380 17,200 -2,471 Descending FlightAware ADS-B
Mon 07:10:03 PM 40.7811 -74.0484 154° Southeast 326 375 17,000 -2,250 Descending FlightAware ADS-B
Mon 07:10:06 PM 40.7775 -74.0464 157° South 326 375 16,900 -1,818 Descending FlightAware ADS-B
Mon 07:10:36 PM 40.7340 -74.0259 160° South 325 374 16,000 -1,579 Descending FlightAware ADS-B
Mon 07:10:44 PM 40.7237 -74.0216 162° South 324 373 15,900 -200 Descending FlightAware ADS-B
Mon 07:11:06 PM 40.6917 -74.0081 162° South 318 366 15,900 -453 Level FlightAware ADS-B
Mon 07:11:37 PM 40.6487 -73.9896 162° South 317 365 15,500 -1,014 Descending FlightAware ADS-B
Mon 07:12:17 PM 40.5936 -73.9667 162° South 307 353 14,700 -1,325 Descending FlightAware ADS-B
Mon 07:12:54 PM 40.5444 -73.9460 162° South 303 349 13,800 -1,412 Descending FlightAware ADS-B
Mon 07:13:25 PM 40.5037 -73.9285 162° South 298 343 13,100 -1,355 Descending FlightAware ADS-B
Mon 07:13:56 PM 40.4635 -73.9106 161° South 293 337 12,400 -2,226 Descending FlightAware ADS-B
Mon 07:14:27 PM 40.4226 -73.8926 161° South 296 341 10,800 -2,850 Descending FlightAware ADS-B
Mon 07:14:36 PM 40.4109 -73.8869 160° South 293 337 10,500 -2,143 Descending FlightAware ADS-B
Mon 07:14:41 PM 40.4049 -73.8827 152° Southeast 294 338 10,300 -1,636 Descending FlightAware ADS-B
Mon 07:14:47 PM 40.3991 -73.8774 145° Southeast 295 339 10,200 -1,636 Descending FlightAware ADS-B
Mon 07:14:52 PM 40.3936 -73.8711 139° Southeast 295 339 10,000 -2,400 Descending FlightAware ADS-B
Mon 07:14:57 PM 40.3886 -73.8644 134° Southeast 294 338 9,800 -2,100 Descending FlightAware ADS-B
Mon 07:15:12 PM 40.3750 -73.8443 132° Southeast 291 335 9,300 -2,182 Descending FlightAware ADS-B
Mon 07:15:30 PM 40.3597 -73.8206 130° Southeast 287 330 8,600 -2,364 Descending FlightAware ADS-B
Mon 07:15:45 PM 40.3468 -73.8003 130° Southeast 285 328 8,000 -2,400 Descending FlightAware ADS-B
Mon 07:16:00 PM 40.3343 -73.7804 129° Southeast 284 327 7,400 -2,222 Descending FlightAware ADS-B
Mon 07:16:12 PM 40.3273 -73.7627 117° Southeast 291 335 7,000 -2,118 Descending FlightAware ADS-B
Mon 07:16:17 PM 40.3256 -73.7538 104° East 291 335 6,800 -2,400 Descending FlightAware ADS-B
Mon 07:16:42 PM 40.3321 -73.7109 79° East 294 338 5,800 -2,323 Descending FlightAware ADS-B
Mon 07:16:48 PM 40.3369 -73.7020 55° Northeast 293 337 5,600 -1,814 Descending FlightAware ADS-B
Mon 07:17:25 PM 40.3680 -73.6550 49° Northeast 293 337 4,500 -1,474 Descending FlightAware ADS-B
Mon 07:17:45 PM 40.3880 -73.6280 46° Northeast 286 329 4,200 -900 Descending FlightAware ADS-B
Mon 07:18:05 PM 40.4050 -73.6030 48° Northeast 281 323 3,900 -429 Descending FlightAware ADS-B
Mon 07:18:27 PM 40.4250 -73.5740 48° Northeast 280 322 3,900  Level FlightAware ADS-B
Mon 07:18:35 PM 40.4330 -73.5670 34° Northeast 280 322 3,900  Level FlightAware ADS-B
Mon 07:18:54 PM 40.4540 -73.5510 30° Northeast 278 320 3,900  Level FlightAware ADS-B
Mon 07:19:06 PM 40.4670 -73.5410 30° Northeast 277 319 3,900  Level FlightAware ADS-B
Mon 07:19:31 PM 40.4960 -73.5200 29° Northeast 278 320 3,900  Level FlightAware ADS-B
Mon 07:19:51 PM 40.5190 -73.5040 28° Northeast 278 320 3,900  Level FlightAware ADS-B
Mon 07:20:10 PM 40.5400 -73.4890 28° Northeast 278 320 3,900  Level FlightAware ADS-B
Mon 07:20:35 PM 40.5680 -73.4680 30° Northeast 277 319 3,900  Level FlightAware ADS-B
Mon 07:20:47 PM 40.5820 -73.4580 28° Northeast 279 321 3,900  Level FlightAware ADS-B
Mon 07:21:07 PM 40.6030 -73.4430 28° Northeast 280 322 3,900  Level FlightAware ADS-B
Mon 07:21:31 PM 40.6320 -73.4220 29° Northeast 271 312 3,900  Level FlightAware ADS-B
Mon 07:21:51 PM 40.6530 -73.4070 28° Northeast 253 291 3,900  Level FlightAware ADS-B
Mon 07:22:29 PM 40.6860 -73.3830 29° Northeast 231 266 3,900  Level FlightAware ADS-B
Mon 07:22:48 PM 40.7070 -73.3690 27° Northeast 234 269 3,900  Level FlightAware ADS-B
Mon 07:22:56 PM 40.7150 -73.3670 11° North 229 264 3,900  Level FlightAware ADS-B
Mon 07:23:16 PM 40.7350 -73.3770 339° North 220 253 3,900  Level FlightAware ADS-B
Mon 07:23:36 PM 40.7520 -73.3890 332° Northwest 221 254 3,900  Level FlightAware ADS-B
Mon 07:24:00 PM 40.7730 -73.4050 330° Northwest 219 252 3,900  Level FlightAware ADS-B
Mon 07:24:08 PM 40.7810 -73.4120 326° Northwest 220 253 3,900  Level FlightAware ADS-B
Mon 07:24:29 PM 40.7970 -73.4290 321° Northwest 218 251 3,900  Level FlightAware ADS-B
Mon 07:24:41 PM 40.8040 -73.4420 305° West 219 252 3,900  Level FlightAware ADS-B
Mon 07:25:01 PM 40.8130 -73.4650 297° West 204 235 3,900  Level FlightAware ADS-B
Mon 07:25:16 PM 40.8200 -73.4810 300° West 191 220 3,900 -171 Level FlightAware ADS-B
Mon 07:25:36 PM 40.8290 -73.5010 301° West 186 214 3,800 -649 Descending FlightAware ADS-B
Mon 07:25:53 PM 40.8350 -73.5180 295° West 184 212 3,500 -857 Descending FlightAware ADS-B
Mon 07:25:57 PM 40.8360 -73.5210 294° West 183 211 3,500 -750 Level FlightAware ADS-B
Mon 07:26:01 PM 40.8360 -73.5260 270° West 181 208 3,400 -750 Descending FlightAware ADS-B
Mon 07:26:21 PM 40.8300 -73.5470 249° West 174 200 3,200 -667 Descending FlightAware ADS-B
Mon 07:26:37 PM 40.8230 -73.5600 235° Southwest 174 200 3,000 -462 Descending FlightAware ADS-B
Mon 07:27:00 PM 40.8120 -73.5790 233° Southwest 176 203 2,900 -140 Descending FlightAware ADS-B
Mon 07:27:20 PM 40.8030 -73.5960 235° Southwest 175 201 2,900  Level FlightAware ADS-B
Mon 07:27:45 PM 40.7910 -73.6180 234° Southwest 174 200 2,900  Level FlightAware ADS-B
Mon 07:28:05 PM 40.7810 -73.6360 234° Southwest 173 199 2,900 -300 Level FlightAware ADS-B
Mon 07:28:25 PM 40.7710 -73.6530 232° Southwest 178 205 2,700 -621 Descending FlightAware ADS-B
Mon 07:28:34 PM 40.7660 -73.6590 222° Southwest 177 204 2,600 -857 Descending FlightAware ADS-B
Mon 07:28:46 PM 40.7580 -73.6660 214° Southwest 176 203 2,400 -1,000 Descending FlightAware ADS-B
Mon 07:29:04 PM 40.7450 -73.6770 213° Southwest 179 206 2,100 -900 Descending FlightAware ADS-B
Mon 07:29:26 PM 40.7300 -73.6890 211° Southwest 181 208 1,800 -913 Descending FlightAware ADS-B
Mon 07:29:50 PM 40.7120 -73.7020 209° Southwest 177 204 1,400 -955 Descending FlightAware ADS-B
Mon 07:30:10 PM 40.6990 -73.7130 213° Southwest 158 182 1,100 -732 Descending FlightAware ADS-B
Mon 07:30:31 PM 40.6860 -73.7230 210° Southwest 138 159 900 -750 Descending FlightAware ADS-B
Mon 07:30:50 PM 40.6760 -73.7300 208° Southwest 133 153 600 -682 Descending FlightAware ADS-B
Mon 07:31:15 PM 40.6640 -73.7400 212° Southwest 131 151 400 -667 Descending FlightAware ADS-B
Mon 07:31:35 PM 40.6530 -73.7490 212° Southwest 131 151 100 -900 Descending FlightAware ADS-B
Mon 07:31:47 PM 40.6460 -73.7540 208° Southwest 130 150 -500 Descending FlightAware ADS-B
Mon 07:32:07 PM 40.6370 -73.7620 214° Southwest 105 121  Level FlightAware ADS-B

Login

Don't have an account? Register now (free) for customized features, flight alerts, and more!